createdAt,value
2018-09-29T00:01:29.365Z,14.71
2018-09-29T00:03:59.965Z,14.86
2018-09-29T00:06:30.374Z,14.90
2018-09-29T00:09:01.062Z,14.80
2018-09-29T00:11:31.680Z,14.87
2018-09-29T00:14:02.223Z,14.80
2018-09-29T00:16:33.271Z,14.86
2018-09-29T00:19:04.207Z,14.81
2018-09-29T00:21:35.251Z,14.86
2018-09-29T00:24:05.822Z,14.81
2018-09-29T00:26:36.329Z,14.73
2018-09-29T00:29:06.988Z,14.77
2018-09-29T00:31:37.508Z,14.74
2018-09-29T00:34:08.046Z,14.67
2018-09-29T00:36:40.356Z,14.57
2018-09-29T00:39:10.877Z,14.63
2018-09-29T00:41:41.483Z,14.62
2018-09-29T00:44:12.029Z,14.44
2018-09-29T00:46:42.537Z,14.53
2018-09-29T00:49:12.737Z,14.48
2018-09-29T00:51:43.502Z,14.52
2018-09-29T00:54:14.996Z,14.52
2018-09-29T00:56:45.510Z,14.47
2018-09-29T00:59:16.687Z,14.39
2018-09-29T01:01:47.196Z,14.38
2018-09-29T01:04:17.951Z,14.35
2018-09-29T01:06:48.690Z,14.32
2018-09-29T01:09:19.226Z,14.22
2018-09-29T01:11:49.924Z,14.18
2018-09-29T01:14:20.556Z,14.18
2018-09-29T01:16:50.808Z,14.04
2018-09-29T01:19:21.682Z,14.00
2018-09-29T01:21:52.366Z,14.00
2018-09-29T01:24:23.663Z,13.93
2018-09-29T01:26:54.170Z,14.00
2018-09-29T01:29:24.562Z,13.34
2018-09-29T01:31:55.107Z,13.95
2018-09-29T01:34:25.610Z,13.70
2018-09-29T01:36:56.125Z,13.67
2018-09-29T01:39:26.350Z,13.67
2018-09-29T01:41:57.194Z,13.61
2018-09-29T01:44:27.724Z,13.65
2018-09-29T01:46:58.807Z,13.61
2018-09-29T01:49:29.342Z,13.64
2018-09-29T01:51:59.917Z,13.55
2018-09-29T01:54:30.560Z,13.56
2018-09-29T01:57:01.085Z,13.53
2018-09-29T01:59:31.628Z,13.58
2018-09-29T02:02:02.410Z,13.57
2018-09-29T02:04:32.930Z,13.58
2018-09-29T02:07:05.288Z,13.54
2018-09-29T02:09:36.085Z,13.60
2018-09-29T02:12:06.928Z,13.47
2018-09-29T02:14:37.455Z,13.35
2018-09-29T02:17:08.289Z,13.39
2018-09-29T02:19:38.828Z,13.49
2018-09-29T02:22:09.350Z,13.43
2018-09-29T02:24:40.844Z,13.40
2018-09-29T02:27:11.592Z,13.43
2018-09-29T02:29:42.246Z,13.33
2018-09-29T02:32:13.200Z,13.28
2018-09-29T02:34:43.778Z,13.24
2018-09-29T02:37:14.305Z,13.38
2018-09-29T02:39:45.693Z,13.17
2018-09-29T02:42:16.359Z,13.26
2018-09-29T02:44:47.101Z,13.29
2018-09-29T02:47:18.565Z,13.16
2018-09-29T02:49:49.055Z,13.18
2018-09-29T02:52:19.689Z,13.31
2018-09-29T02:54:50.462Z,13.46
2018-09-29T02:57:20.999Z,13.25
2018-09-29T02:59:51.605Z,13.32
2018-09-29T03:02:22.131Z,13.17
2018-09-29T03:04:52.376Z,13.19
2018-09-29T03:07:23.325Z,13.24
2018-09-29T03:09:55.876Z,13.18
2018-09-29T03:12:26.417Z,13.15
2018-09-29T03:14:56.897Z,13.29
2018-09-29T03:17:27.576Z,13.32
2018-09-29T03:19:58.096Z,13.16
2018-09-29T03:22:28.993Z,13.15
2018-09-29T03:25:01.752Z,13.27
2018-09-29T03:27:32.335Z,13.32
2018-09-29T03:30:02.576Z,13.37
2018-09-29T03:32:33.092Z,13.30
2018-09-29T03:35:03.660Z,13.31
2018-09-29T03:37:34.464Z,13.40
2018-09-29T03:40:04.965Z,13.18
2018-09-29T03:42:35.762Z,13.21
2018-09-29T03:45:06.849Z,13.32
2018-09-29T03:47:37.159Z,13.45
2018-09-29T03:50:07.603Z,12.29
2018-09-29T03:52:38.138Z,13.30
2018-09-29T03:55:08.678Z,13.32
2018-09-29T03:57:39.760Z,13.53
2018-09-29T04:00:10.149Z,13.49
2018-09-29T04:02:40.887Z,13.00
2018-09-29T04:05:11.199Z,13.33
2018-09-29T04:07:41.465Z,13.40
2018-09-29T04:10:11.739Z,13.28
2018-09-29T04:12:42.313Z,13.06
2018-09-29T04:15:12.848Z,13.13
2018-09-29T04:17:43.618Z,13.19
2018-09-29T04:20:13.893Z,13.13
2018-09-29T04:22:44.645Z,13.17
2018-09-29T04:25:16.149Z,12.94
2018-09-29T04:27:46.781Z,12.93
2018-09-29T04:30:17.197Z,12.98
2018-09-29T04:32:47.697Z,12.67
2018-09-29T04:35:18.240Z,12.79
2018-09-29T04:37:48.756Z,12.82
2018-09-29T04:40:19.553Z,12.86
2018-09-29T04:42:50.157Z,12.79
2018-09-29T04:45:20.966Z,12.82
2018-09-29T04:47:51.223Z,12.71
2018-09-29T04:50:22.020Z,12.73
2018-09-29T04:52:52.507Z,12.64
2018-09-29T04:55:22.823Z,12.48
2018-09-29T04:57:53.527Z,12.35
2018-09-29T05:00:24.740Z,12.32
2018-09-29T05:02:55.549Z,12.29
2018-09-29T05:05:26.084Z,11.53
2018-09-29T05:07:56.687Z,12.24
2018-09-29T05:10:27.665Z,12.15
2018-09-29T05:12:58.205Z,12.11
2018-09-29T05:15:28.847Z,12.13
2018-09-29T05:17:59.420Z,12.09
2018-09-29T05:20:30.809Z,12.00
2018-09-29T05:23:01.089Z,11.90
2018-09-29T05:25:31.570Z,11.86
2018-09-29T05:28:02.012Z,11.84
2018-09-29T05:30:32.649Z,11.80
2018-09-29T05:33:03.578Z,11.72
2018-09-29T05:35:34.023Z,11.74
2018-09-29T05:38:04.597Z,11.80
2018-09-29T05:40:35.141Z,11.72
2018-09-29T05:43:05.426Z,11.72
2018-09-29T05:45:36.106Z,11.62
2018-09-29T05:48:06.538Z,11.73
2018-09-29T05:50:37.265Z,11.63
2018-09-29T05:53:07.561Z,11.69
2018-09-29T05:55:38.255Z,11.60
2018-09-29T05:58:09.036Z,11.62
2018-09-29T06:00:39.931Z,11.81
2018-09-29T06:03:10.288Z,11.84
2018-09-29T06:05:40.690Z,11.68
2018-09-29T06:08:11.012Z,11.78
2018-09-29T06:10:41.423Z,11.80
2018-09-29T06:13:12.036Z,11.70
2018-09-29T06:15:42.917Z,11.97
2018-09-29T06:18:13.511Z,11.88
2018-09-29T06:20:44.287Z,11.89
2018-09-29T06:23:15.367Z,11.82
2018-09-29T06:25:45.668Z,11.84
2018-09-29T06:28:16.301Z,12.01
2018-09-29T06:30:46.940Z,12.05
2018-09-29T06:33:17.869Z,11.84
2018-09-29T06:35:48.820Z,11.84
2018-09-29T06:38:19.377Z,12.00
2018-09-29T06:40:50.272Z,12.01
2018-09-29T06:43:20.866Z,11.95
2018-09-29T06:45:51.593Z,12.07
2018-09-29T06:48:22.092Z,11.81
2018-09-29T06:50:53.260Z,11.89
2018-09-29T06:53:24.158Z,11.87
2018-09-29T06:55:54.961Z,11.87
2018-09-29T06:58:25.415Z,12.05
2018-09-29T07:00:56.016Z,12.18
2018-09-29T07:03:26.834Z,12.06
2018-09-29T07:05:57.103Z,12.10
2018-09-29T07:08:27.909Z,12.06
2018-09-29T07:10:59.125Z,12.24
2018-09-29T07:13:29.970Z,12.08
2018-09-29T07:16:00.736Z,12.34
2018-09-29T07:18:31.011Z,12.24
2018-09-29T07:21:02.829Z,12.52
2018-09-29T07:23:33.219Z,12.54
2018-09-29T07:26:04.077Z,12.56
2018-09-29T07:28:34.442Z,12.43
2018-09-29T07:31:05.346Z,12.41
2018-09-29T07:33:35.879Z,12.54
2018-09-29T07:36:06.786Z,12.46
2018-09-29T07:38:38.242Z,12.37
2018-09-29T07:41:09.040Z,12.56
2018-09-29T07:43:39.633Z,12.53
2018-09-29T07:46:10.170Z,12.48
2018-09-29T07:48:40.664Z,12.58
2018-09-29T07:51:10.923Z,12.56
2018-09-29T07:53:41.176Z,12.46
2018-09-29T07:56:11.977Z,12.24
2018-09-29T07:58:42.252Z,12.52
2018-09-29T08:01:13.006Z,12.71
2018-09-29T08:03:43.568Z,12.50
2018-09-29T08:06:13.845Z,12.36
2018-09-29T08:08:44.549Z,12.46
2018-09-29T08:11:15.118Z,12.50
2018-09-29T08:13:46.581Z,12.48
2018-09-29T08:16:16.857Z,12.72
2018-09-29T08:18:47.652Z,12.59
2018-09-29T08:21:18.481Z,12.51
2018-09-29T08:23:49.220Z,12.74
2018-09-29T08:26:19.961Z,13.05
2018-09-29T08:28:50.573Z,12.77
2018-09-29T08:31:21.229Z,12.81
2018-09-29T08:33:51.746Z,12.73
2018-09-29T08:36:23.154Z,12.87
2018-09-29T08:38:53.725Z,13.13
2018-09-29T08:41:24.665Z,13.04
2018-09-29T08:43:55.096Z,12.86
2018-09-29T08:46:25.657Z,12.80
2018-09-29T08:48:56.263Z,13.00
2018-09-29T08:51:27.524Z,12.79
2018-09-29T08:53:58.082Z,13.27
2018-09-29T08:56:28.722Z,13.21
2018-09-29T08:59:00.036Z,13.15
2018-09-29T09:01:30.337Z,13.17
2018-09-29T09:04:01.226Z,13.25
2018-09-29T09:06:31.977Z,13.28
2018-09-29T09:09:03.080Z,13.48
2018-09-29T09:11:33.616Z,13.76
2018-09-29T09:14:04.471Z,13.95
2018-09-29T09:16:35.200Z,16.99
2018-09-29T09:19:06.028Z,17.49
2018-09-29T09:21:36.325Z,18.66
2018-09-29T09:24:06.874Z,18.67
2018-09-29T09:26:37.640Z,18.42
2018-09-29T09:29:08.272Z,18.44
2018-09-29T09:31:38.887Z,19.19
2018-09-29T09:34:09.428Z,19.21
2018-09-29T09:36:40.182Z,20.87
2018-09-29T09:39:11.620Z,19.74
2018-09-29T09:41:42.318Z,20.05
2018-09-29T09:44:12.834Z,18.74
2018-09-29T09:46:44.057Z,19.40
2018-09-29T09:49:14.612Z,19.23
2018-09-29T09:51:45.168Z,20.60
2018-09-29T09:54:16.321Z,19.08
2018-09-29T09:56:46.874Z,19.77
2018-09-29T09:59:17.330Z,19.63
2018-09-29T10:01:53.051Z,19.03
2018-09-29T10:04:23.716Z,19.16
2018-09-29T10:06:54.185Z,20.90
2018-09-29T10:09:24.868Z,19.86
2018-09-29T10:11:55.446Z,20.14
2018-09-29T10:14:26.132Z,20.43
2018-09-29T10:16:56.713Z,18.99
2018-09-29T10:19:27.402Z,19.46
2018-09-29T10:21:58.053Z,19.74
2018-09-29T10:24:29.061Z,19.02
2018-09-29T10:26:59.452Z,20.29
2018-09-29T10:29:29.997Z,20.08
2018-09-29T10:32:00.559Z,19.88
2018-09-29T10:34:32.214Z,19.67
2018-09-29T10:37:02.744Z,18.60
2018-09-29T10:39:33.038Z,19.51
2018-09-29T10:42:03.666Z,18.32
2018-09-29T10:44:34.338Z,16.44
2018-09-29T10:47:04.888Z,15.49
2018-09-29T10:49:35.268Z,15.40
2018-09-29T10:52:05.576Z,15.89
2018-09-29T10:54:36.211Z,15.64
2018-09-29T10:57:07.080Z,15.41
2018-09-29T10:59:37.781Z,14.93
2018-09-29T11:02:08.479Z,15.03
2018-09-29T11:04:39.412Z,15.14
2018-09-29T11:07:10.051Z,15.04
2018-09-29T11:09:40.581Z,15.58
2018-09-29T11:12:10.934Z,15.41
2018-09-29T11:14:41.460Z,15.74
2018-09-29T11:17:11.846Z,16.07
2018-09-29T11:19:42.492Z,16.33
2018-09-29T11:22:13.834Z,15.67
2018-09-29T11:24:44.378Z,15.32
2018-09-29T11:27:14.956Z,15.58
2018-09-29T11:29:45.734Z,15.69
2018-09-29T11:32:16.390Z,16.29
2018-09-29T11:34:46.978Z,15.85
2018-09-29T11:37:17.639Z,15.38
2018-09-29T11:39:48.292Z,15.62
2018-09-29T11:42:19.263Z,15.72
2018-09-29T11:44:49.631Z,16.01
2018-09-29T11:47:20.330Z,16.21
2018-09-29T11:49:51.356Z,16.24
2018-09-29T11:52:21.914Z,16.26
2018-09-29T11:54:52.269Z,15.87
2018-09-29T11:57:22.878Z,16.05
2018-09-29T11:59:53.439Z,16.06
2018-09-29T12:02:24.192Z,16.24
2018-09-29T12:04:54.654Z,16.16
2018-09-29T12:07:25.001Z,16.01
2018-09-29T12:09:55.951Z,15.58
2018-09-29T12:12:26.256Z,15.50
2018-09-29T12:14:56.802Z,15.63
2018-09-29T12:17:28.581Z,15.85
2018-09-29T12:19:58.844Z,16.34
2018-09-29T12:22:29.148Z,15.95
2018-09-29T12:25:02.778Z,16.71
2018-09-29T12:27:33.596Z,16.39
2018-09-29T12:30:04.868Z,16.28
2018-09-29T12:32:36.206Z,16.39
2018-09-29T12:35:08.037Z,16.50
2018-09-29T12:37:38.843Z,16.13
2018-09-29T12:40:09.136Z,16.07
2018-09-29T12:42:39.922Z,16.61
2018-09-29T12:45:10.370Z,16.69
2018-09-29T12:47:41.338Z,16.42
2018-09-29T12:50:12.123Z,16.28
2018-09-29T12:52:42.741Z,16.21
2018-09-29T12:55:13.596Z,16.00
2018-09-29T12:57:43.872Z,16.44
2018-09-29T13:00:14.628Z,16.81
2018-09-29T13:02:45.117Z,16.89
2018-09-29T13:05:15.872Z,16.68
2018-09-29T13:07:46.501Z,16.31
2018-09-29T13:10:17.029Z,16.36
2018-09-29T13:12:47.561Z,16.44
2018-09-29T13:15:33.399Z,16.26
2018-09-29T13:18:03.968Z,16.26
2018-09-29T13:20:34.342Z,16.51
2018-09-29T13:23:04.943Z,16.53
2018-09-29T13:25:35.905Z,16.76
2018-09-29T13:28:06.752Z,16.56
2018-09-29T13:30:37.824Z,16.10
2018-09-29T13:33:08.606Z,16.02
2018-09-29T13:35:39.222Z,15.87
2018-09-29T13:38:09.497Z,15.68
2018-09-29T13:40:39.789Z,16.05
2018-09-29T13:43:10.319Z,15.73
2018-09-29T13:45:40.813Z,16.34
2018-09-29T13:48:11.628Z,16.88
2018-09-29T13:50:42.448Z,16.78
2018-09-29T13:53:12.824Z,16.94
2018-09-29T13:55:43.522Z,16.05
2018-09-29T13:58:14.221Z,16.19
2018-09-29T14:00:44.833Z,16.70
2018-09-29T14:03:15.451Z,16.61
2018-09-29T14:05:45.849Z,16.42
2018-09-29T14:08:16.436Z,16.22
2018-09-29T14:10:47.450Z,16.30
2018-09-29T14:13:18.404Z,15.89
2018-09-29T14:15:48.730Z,15.77
2018-09-29T14:18:19.535Z,16.16
2018-09-29T14:20:50.376Z,16.00
2018-09-29T14:23:21.983Z,16.04
2018-09-29T14:25:52.734Z,16.11
2018-09-29T14:28:23.539Z,16.08
2018-09-29T14:30:54.524Z,16.23
2018-09-29T14:33:28.163Z,15.66
2018-09-29T14:35:58.488Z,15.54
2018-09-29T14:38:29.921Z,15.96
2018-09-29T14:41:00.670Z,16.02
2018-09-29T14:43:31.240Z,15.43
2018-09-29T14:46:01.887Z,15.67
2018-09-29T14:48:32.675Z,16.01
2018-09-29T14:51:03.400Z,15.93
2018-09-29T14:53:33.688Z,16.09
2018-09-29T14:56:04.227Z,15.97
2018-09-29T14:58:35.045Z,16.23
2018-09-29T15:01:05.585Z,16.29
2018-09-29T15:03:36.457Z,15.63
2018-09-29T15:06:06.732Z,15.78
2018-09-29T15:08:37.004Z,16.11
2018-09-29T15:11:08.231Z,15.76
2018-09-29T15:13:38.870Z,15.32
2018-09-29T15:16:09.649Z,15.32
2018-09-29T15:18:40.273Z,15.50
2018-09-29T15:21:10.836Z,15.77
2018-09-29T15:23:41.593Z,15.64
2018-09-29T15:26:12.505Z,15.81
2018-09-29T15:28:42.955Z,15.58
2018-09-29T15:31:13.413Z,15.52
2018-09-29T15:33:43.982Z,15.37
2018-09-29T15:36:14.557Z,15.13
2018-09-29T15:38:45.119Z,15.27
2018-09-29T15:41:15.756Z,15.13
2018-09-29T15:43:46.586Z,14.98
2018-09-29T15:46:17.136Z,15.20
2018-09-29T15:48:47.790Z,15.36
2018-09-29T15:51:18.668Z,15.21
2018-09-29T15:53:50.059Z,15.07
2018-09-29T15:56:21.304Z,15.08
2018-09-29T15:58:52.050Z,14.89
2018-09-29T16:01:22.595Z,14.92
2018-09-29T16:03:53.273Z,14.94
2018-09-29T16:06:23.657Z,14.86
2018-09-29T16:08:54.229Z,14.94
2018-09-29T16:11:24.891Z,14.71
2018-09-29T16:13:55.556Z,14.54
2018-09-29T16:16:26.134Z,14.70
2018-09-29T16:18:56.682Z,14.65
2018-09-29T16:21:27.331Z,14.53
2018-09-29T16:23:57.898Z,14.56
2018-09-29T16:26:28.816Z,14.58
2018-09-29T16:28:59.533Z,14.72
2018-09-29T16:31:30.285Z,14.83
2018-09-29T16:34:00.836Z,14.87
2018-09-29T16:36:31.247Z,14.65
2018-09-29T16:39:01.630Z,14.62
2018-09-29T16:41:31.936Z,14.84
2018-09-29T16:44:02.520Z,15.02
2018-09-29T16:46:33.285Z,14.86
2018-09-29T16:49:03.903Z,14.84
2018-09-29T16:51:34.863Z,14.63
2018-09-29T16:54:05.759Z,14.49
2018-09-29T16:56:36.577Z,14.60
2018-09-29T16:59:07.117Z,14.62
2018-09-29T17:01:38.185Z,14.87
2018-09-29T17:04:08.575Z,14.73
2018-09-29T17:06:39.461Z,14.47
2018-09-29T17:09:11.402Z,14.30
2018-09-29T17:11:42.279Z,14.21
2018-09-29T17:14:12.874Z,14.14
2018-09-29T17:16:43.453Z,14.26
2018-09-29T17:19:14.101Z,14.35
2018-09-29T17:21:44.674Z,14.56
2018-09-29T17:24:14.950Z,14.74
2018-09-29T17:26:45.513Z,14.92
2018-09-29T17:29:16.062Z,14.68
2018-09-29T17:31:46.618Z,14.46
2018-09-29T17:34:17.563Z,14.30
2018-09-29T17:36:48.296Z,14.16
2018-09-29T17:39:19.109Z,14.13
2018-09-29T17:41:49.785Z,14.13
2018-09-29T17:44:20.638Z,14.00
2018-09-29T17:46:51.249Z,13.85
2018-09-29T17:49:21.729Z,13.59
2018-09-29T17:51:52.060Z,13.53
2018-09-29T17:54:22.953Z,13.47
2018-09-29T17:56:53.271Z,13.50
2018-09-29T17:59:23.848Z,13.54
2018-09-29T18:01:54.279Z,13.52
2018-09-29T18:04:24.620Z,13.42
2018-09-29T18:06:55.219Z,13.31
2018-09-29T18:09:26.132Z,13.24
2018-09-29T18:11:56.456Z,13.37
2018-09-29T18:14:27.724Z,13.45
2018-09-29T18:16:59.762Z,13.35
2018-09-29T18:19:30.159Z,13.36
2018-09-29T18:22:00.942Z,13.21
2018-09-29T18:24:31.808Z,13.13
2018-09-29T18:27:02.423Z,13.05
2018-09-29T18:29:32.718Z,12.92
2018-09-29T18:32:03.587Z,12.91
2018-09-29T18:34:34.470Z,12.84
2018-09-29T18:37:05.026Z,12.73
2018-09-29T18:39:35.304Z,12.69
2018-09-29T18:42:05.756Z,12.61
2018-09-29T18:44:36.808Z,12.59
2018-09-29T18:47:08.031Z,12.54
2018-09-29T18:49:38.428Z,12.52
2018-09-29T18:52:09.229Z,12.38
2018-09-29T18:54:42.375Z,12.24
2018-09-29T18:57:13.017Z,12.15
2018-09-29T18:59:43.721Z,11.98
2018-09-29T19:02:14.303Z,11.85
2018-09-29T19:04:44.676Z,11.64
2018-09-29T19:07:15.413Z,11.47
2018-09-29T19:09:46.033Z,11.38
2018-09-29T19:12:16.566Z,11.50
2018-09-29T19:14:46.963Z,11.62
2018-09-29T19:17:17.574Z,11.97
2018-09-29T19:19:47.797Z,11.92
2018-09-29T19:22:18.064Z,12.45
2018-09-29T19:24:48.717Z,12.87
2018-09-29T19:27:19.861Z,12.98
2018-09-29T19:29:50.200Z,13.31
2018-09-29T19:32:20.620Z,12.53
2018-09-29T19:34:51.324Z,12.03
2018-09-29T19:37:21.848Z,11.76
2018-09-29T19:39:52.363Z,11.54
2018-09-29T19:42:22.933Z,11.45
2018-09-29T19:44:53.481Z,11.39
2018-09-29T19:47:24.236Z,11.35
2018-09-29T19:49:54.933Z,11.28
2018-09-29T19:52:25.905Z,10.34
2018-09-29T19:54:56.642Z,11.26
2018-09-29T19:57:26.973Z,11.29
2018-09-29T19:59:57.499Z,11.60
2018-09-29T20:02:28.032Z,11.76
2018-09-29T20:04:58.589Z,11.99
2018-09-29T20:07:29.313Z,12.20
2018-09-29T20:09:59.592Z,11.79
2018-09-29T20:12:30.463Z,11.67
2018-09-29T20:15:01.063Z,11.69
2018-09-29T20:17:31.696Z,11.39
2018-09-29T20:20:02.469Z,11.22
2018-09-29T20:22:32.824Z,11.12
2018-09-29T20:25:03.865Z,11.15
2018-09-29T20:27:34.123Z,11.09
2018-09-29T20:30:05.017Z,10.99
2018-09-29T20:32:36.833Z,10.97
2018-09-29T20:35:07.389Z,10.97
2018-09-29T20:37:38.528Z,10.96
2018-09-29T20:40:09.087Z,10.84
2018-09-29T20:42:41.907Z,10.49
2018-09-29T20:45:12.445Z,11.26
2018-09-29T20:47:42.973Z,10.84
2018-09-29T20:50:13.815Z,11.58
2018-09-29T20:52:44.467Z,12.21
2018-09-29T20:55:15.182Z,12.41
2018-09-29T20:57:45.967Z,11.92
2018-09-29T21:00:16.537Z,11.94
2018-09-29T21:02:47.207Z,11.78
2018-09-29T21:05:17.912Z,10.89
2018-09-29T21:07:48.749Z,9.91
2018-09-29T21:10:19.005Z,9.30
2018-09-29T21:12:49.558Z,9.21
2018-09-29T21:15:20.052Z,9.17
2018-09-29T21:17:50.539Z,9.16
2018-09-29T21:20:21.053Z,9.06
2018-09-29T21:22:51.288Z,8.89
2018-09-29T21:25:23.684Z,8.85
2018-09-29T21:27:54.236Z,9.25
2018-09-29T21:30:25.045Z,9.51
2018-09-29T21:32:55.573Z,9.05
2018-09-29T21:35:25.896Z,9.10
2018-09-29T21:37:56.425Z,9.93
2018-09-29T21:40:27.000Z,10.45
2018-09-29T21:42:57.277Z,10.71
2018-09-29T21:45:27.906Z,10.79
2018-09-29T21:47:58.456Z,10.57
2018-09-29T21:50:29.026Z,10.36
2018-09-29T21:52:59.563Z,10.50
2018-09-29T21:55:29.837Z,10.65
2018-09-29T21:58:00.800Z,10.94
2018-09-29T22:00:36.634Z,10.62
2018-09-29T22:03:07.395Z,10.18
2018-09-29T22:05:37.612Z,10.08
2018-09-29T22:08:08.158Z,10.00
2018-09-29T22:10:38.931Z,10.04
2018-09-29T22:13:09.449Z,10.09
2018-09-29T22:15:40.025Z,10.07
2018-09-29T22:18:10.591Z,10.17
2018-09-29T22:20:41.162Z,10.28
2018-09-29T22:23:11.424Z,10.56
2018-09-29T22:25:41.949Z,10.72
2018-09-29T22:28:12.534Z,10.98
2018-09-29T22:30:43.277Z,10.93
2018-09-29T22:33:14.132Z,10.40
2018-09-29T22:35:44.951Z,9.91
2018-09-29T22:38:15.518Z,9.76
2018-09-29T22:40:46.330Z,9.79
2018-09-29T22:43:16.531Z,9.80
2018-09-29T22:45:47.097Z,9.76
2018-09-29T22:48:17.608Z,9.80
2018-09-29T22:50:48.153Z,9.63
2018-09-29T22:53:18.816Z,9.58
2018-09-29T22:55:49.312Z,9.32
2018-09-29T22:58:19.856Z,6.11
2018-09-29T23:00:50.766Z,9.45
2018-09-29T23:03:21.032Z,9.57
2018-09-29T23:05:51.431Z,9.49
2018-09-29T23:08:21.760Z,9.51
2018-09-29T23:10:52.081Z,9.53
2018-09-29T23:13:22.611Z,9.89
2018-09-29T23:15:53.145Z,9.77
2018-09-29T23:18:23.849Z,9.38
2018-09-29T23:20:54.228Z,9.22
2018-09-29T23:23:25.042Z,9.02
2018-09-29T23:25:55.950Z,8.86
2018-09-29T23:28:26.730Z,8.83
2018-09-29T23:30:57.268Z,9.11
2018-09-29T23:33:27.836Z,9.39
2018-09-29T23:35:58.173Z,9.85
2018-09-29T23:38:28.718Z,9.85
2018-09-29T23:40:59.269Z,9.54
2018-09-29T23:43:29.569Z,9.68
2018-09-29T23:46:00.121Z,9.73
2018-09-29T23:48:30.429Z,9.43
2018-09-29T23:51:03.021Z,9.26
2018-09-29T23:53:33.293Z,9.29
2018-09-29T23:56:03.857Z,9.56
2018-09-29T23:58:34.472Z,9.94
